createdAt,value
2023-12-20T00:01:57.370Z,8.62
2023-12-20T00:04:23.961Z,8.62
2023-12-20T00:06:50.604Z,8.59
2023-12-20T00:09:17.838Z,8.62
2023-12-20T00:11:44.409Z,8.64
2023-12-20T00:14:11.137Z,8.67
2023-12-20T00:16:37.543Z,8.64
2023-12-20T00:19:03.986Z,8.63
2023-12-20T00:21:30.511Z,8.62
2023-12-20T00:23:56.919Z,8.62
2023-12-20T00:26:23.648Z,8.63
2023-12-20T00:28:49.985Z,8.60
2023-12-20T00:31:16.469Z,8.62
2023-12-20T00:33:45.339Z,8.62
2023-12-20T00:36:12.170Z,8.60
2023-12-20T00:38:38.544Z,8.58
2023-12-20T00:41:05.225Z,8.54
2023-12-20T00:43:31.600Z,8.48
2023-12-20T00:46:01.225Z,8.43
2023-12-20T00:48:36.729Z,8.43
2023-12-20T00:51:03.825Z,8.43
2023-12-20T00:53:30.202Z,8.45
2023-12-20T00:55:56.750Z,8.48
2023-12-20T00:58:23.310Z,8.49
2023-12-20T01:00:49.850Z,8.50
2023-12-20T01:03:16.441Z,8.49
2023-12-20T01:05:43.056Z,8.50
2023-12-20T01:08:09.470Z,8.53
2023-12-20T01:10:35.898Z,8.50
2023-12-20T01:13:02.400Z,8.52
2023-12-20T01:15:28.860Z,8.54
2023-12-20T01:17:55.531Z,8.51
2023-12-20T01:20:22.184Z,8.53
2023-12-20T01:22:48.565Z,8.44
2023-12-20T01:25:15.157Z,8.39
2023-12-20T01:27:41.788Z,8.34
2023-12-20T01:30:08.793Z,8.29
2023-12-20T01:32:35.348Z,8.26
2023-12-20T01:35:03.060Z,8.26
2023-12-20T01:37:30.734Z,8.28
2023-12-20T01:39:57.341Z,8.23
2023-12-20T01:42:24.465Z,8.22
2023-12-20T01:44:50.976Z,8.17
2023-12-20T01:47:17.702Z,8.14
2023-12-20T01:49:44.871Z,8.16
2023-12-20T01:52:13.180Z,8.16
2023-12-20T01:54:41.415Z,8.19
2023-12-20T01:57:09.573Z,8.14
2023-12-20T01:59:36.302Z,8.10
2023-12-20T02:02:04.937Z,8.11
2023-12-20T02:04:31.653Z,8.11
2023-12-20T02:06:59.988Z,8.03
2023-12-20T02:09:27.634Z,8.04
2023-12-20T02:11:54.020Z,7.99
2023-12-20T02:14:20.462Z,7.97
2023-12-20T02:16:46.932Z,7.88
2023-12-20T02:19:16.851Z,7.73
2023-12-20T02:21:43.442Z,7.69
2023-12-20T02:24:09.968Z,7.67
2023-12-20T02:26:36.650Z,7.65
2023-12-20T02:29:03.433Z,7.62
2023-12-20T02:31:30.120Z,7.60
2023-12-20T02:33:56.547Z,7.51
2023-12-20T02:36:22.969Z,7.49
2023-12-20T02:38:49.636Z,7.48
2023-12-20T02:41:17.921Z,7.46
2023-12-20T02:43:44.506Z,7.42
2023-12-20T02:46:11.022Z,7.39
2023-12-20T02:48:37.643Z,7.37
2023-12-20T02:51:04.437Z,7.44
2023-12-20T02:53:30.784Z,7.46
2023-12-20T02:55:57.212Z,7.44
2023-12-20T02:58:23.714Z,7.37
2023-12-20T03:00:50.801Z,7.34
2023-12-20T03:03:17.321Z,7.38
2023-12-20T03:05:43.859Z,7.41
2023-12-20T03:08:11.880Z,7.42
2023-12-20T03:10:38.306Z,7.43
2023-12-20T03:13:05.776Z,7.45
2023-12-20T03:15:32.289Z,7.42
2023-12-20T03:18:00.215Z,7.44
2023-12-20T03:20:29.835Z,7.38
2023-12-20T03:22:56.234Z,7.40
2023-12-20T03:25:22.728Z,7.41
2023-12-20T03:27:49.685Z,7.45
2023-12-20T03:30:16.427Z,7.48
2023-12-20T03:32:43.038Z,7.48
2023-12-20T03:35:09.641Z,7.42
2023-12-20T03:37:36.510Z,7.43
2023-12-20T03:40:03.981Z,7.42
2023-12-20T03:42:30.387Z,7.38
2023-12-20T03:44:56.838Z,7.34
2023-12-20T03:47:23.471Z,7.38
2023-12-20T03:49:50.136Z,7.39
2023-12-20T03:52:16.659Z,7.40
2023-12-20T03:54:44.024Z,7.40
2023-12-20T03:57:10.536Z,7.41
2023-12-20T03:59:39.927Z,7.39
2023-12-20T04:02:06.417Z,7.35
2023-12-20T04:04:33.084Z,7.34
2023-12-20T04:06:59.752Z,7.38
2023-12-20T04:09:26.526Z,7.44
2023-12-20T04:11:52.955Z,7.44
2023-12-20T04:14:19.355Z,7.46
2023-12-20T04:16:47.656Z,7.48
2023-12-20T04:19:14.643Z,7.47
2023-12-20T04:21:41.401Z,7.44
2023-12-20T04:24:08.092Z,7.39
2023-12-20T04:26:34.560Z,7.39
2023-12-20T04:29:00.974Z,7.39
2023-12-20T04:31:27.425Z,7.42
2023-12-20T04:33:53.977Z,7.43
2023-12-20T04:36:20.505Z,7.43
2023-12-20T04:38:46.922Z,7.38
2023-12-20T04:41:16.764Z,7.40
2023-12-20T04:43:43.202Z,7.43
2023-12-20T04:46:09.802Z,7.47
2023-12-20T04:48:36.275Z,7.46
2023-12-20T04:51:02.792Z,7.45
2023-12-20T04:53:29.289Z,7.44
2023-12-20T04:55:55.800Z,7.45
2023-12-20T04:58:22.236Z,7.43
2023-12-20T05:00:48.772Z,7.41
2023-12-20T05:03:16.564Z,7.38
2023-12-20T05:05:43.017Z,7.37
2023-12-20T05:08:09.649Z,7.35
2023-12-20T05:10:37.664Z,7.32
2023-12-20T05:13:04.424Z,7.35
2023-12-20T05:15:30.958Z,7.32
2023-12-20T05:17:57.446Z,7.34
2023-12-20T05:20:24.524Z,7.31
2023-12-20T05:22:51.004Z,7.31
2023-12-20T05:25:18.001Z,7.26
2023-12-20T05:27:44.630Z,7.28
2023-12-20T05:30:11.947Z,7.23
2023-12-20T05:32:38.497Z,7.21
2023-12-20T05:35:05.187Z,7.20
2023-12-20T05:37:31.664Z,7.22
2023-12-20T05:39:58.300Z,7.23
2023-12-20T05:42:24.675Z,7.24
2023-12-20T05:44:53.507Z,7.27
2023-12-20T05:47:21.050Z,7.23
2023-12-20T05:49:47.523Z,7.23
2023-12-20T05:52:14.074Z,7.23
2023-12-20T05:54:40.775Z,7.19
2023-12-20T05:57:07.230Z,7.21
2023-12-20T05:59:33.675Z,7.16
2023-12-20T06:02:00.193Z,7.14
2023-12-20T06:04:26.776Z,7.10
2023-12-20T06:06:53.322Z,7.08
2023-12-20T06:09:20.619Z,7.08
2023-12-20T06:11:47.092Z,7.15
2023-12-20T06:14:13.514Z,7.14
2023-12-20T06:16:40.374Z,7.20
2023-12-20T06:19:06.979Z,7.39
2023-12-20T06:21:33.479Z,7.44
2023-12-20T06:24:01.323Z,7.55
2023-12-20T06:26:27.812Z,7.54
2023-12-20T06:28:54.251Z,7.54
2023-12-20T06:31:20.818Z,7.52
2023-12-20T06:33:47.390Z,7.55
2023-12-20T06:36:14.869Z,7.55
2023-12-20T06:38:43.236Z,7.59
2023-12-20T06:41:09.682Z,7.59
2023-12-20T06:43:46.141Z,7.56
2023-12-20T06:46:16.477Z,7.54
2023-12-20T06:48:43.463Z,7.58
2023-12-20T06:51:15.274Z,7.66
2023-12-20T06:53:41.765Z,7.63
2023-12-20T06:56:08.602Z,7.62
2023-12-20T06:58:35.513Z,7.67
2023-12-20T07:01:01.979Z,7.67
2023-12-20T07:03:28.417Z,7.64
2023-12-20T07:05:55.033Z,7.62
2023-12-20T07:08:21.447Z,7.61
2023-12-20T07:10:47.828Z,7.56
2023-12-20T07:13:14.704Z,7.56
2023-12-20T07:15:41.642Z,7.60
2023-12-20T07:18:08.540Z,7.54
2023-12-20T07:20:35.097Z,7.55
2023-12-20T07:23:01.538Z,7.55
2023-12-20T07:25:28.172Z,7.55
2023-12-20T07:27:54.913Z,7.59
2023-12-20T07:30:21.399Z,7.62
2023-12-20T07:32:48.495Z,7.63
2023-12-20T07:35:16.780Z,7.59
2023-12-20T07:37:43.496Z,7.57
2023-12-20T07:40:10.387Z,7.54
2023-12-20T07:42:37.028Z,7.54
2023-12-20T07:45:04.317Z,7.51
2023-12-20T07:47:30.873Z,7.52
2023-12-20T07:49:57.553Z,7.53
2023-12-20T07:52:24.212Z,7.52
2023-12-20T07:54:50.772Z,7.51
2023-12-20T07:57:17.212Z,7.52
2023-12-20T07:59:45.314Z,7.55
2023-12-20T08:02:11.734Z,7.54
2023-12-20T08:04:38.412Z,7.51
2023-12-20T08:07:05.233Z,7.53
2023-12-20T08:09:32.983Z,7.56
2023-12-20T08:12:00.693Z,7.56
2023-12-20T08:14:27.113Z,7.56
2023-12-20T08:16:53.487Z,7.54
2023-12-20T08:19:20.140Z,7.58
2023-12-20T08:21:46.559Z,7.58
2023-12-20T08:24:13.113Z,7.55
2023-12-20T08:26:39.739Z,7.62
2023-12-20T08:29:06.362Z,7.62
2023-12-20T08:31:32.861Z,7.61
2023-12-20T08:33:59.518Z,7.59
2023-12-20T08:36:26.168Z,7.56
2023-12-20T08:38:52.643Z,7.55
2023-12-20T08:41:19.589Z,7.52
2023-12-20T08:43:45.996Z,7.56
2023-12-20T08:46:13.100Z,7.57
2023-12-20T08:48:40.259Z,7.60
2023-12-20T08:51:10.365Z,7.59
2023-12-20T08:53:36.911Z,7.58
2023-12-20T08:56:03.637Z,7.61
2023-12-20T08:58:30.175Z,7.60
2023-12-20T09:00:57.724Z,7.62
2023-12-20T09:03:24.230Z,7.64
2023-12-20T09:05:50.641Z,7.63
2023-12-20T09:08:17.214Z,7.59
2023-12-20T09:10:43.669Z,7.58
2023-12-20T09:13:10.203Z,7.58
2023-12-20T09:15:37.263Z,7.60
2023-12-20T09:18:04.924Z,7.54
2023-12-20T09:20:32.608Z,7.54
2023-12-20T09:23:00.123Z,7.55
2023-12-20T09:25:27.671Z,7.58
2023-12-20T09:27:54.438Z,7.58
2023-12-20T09:30:26.904Z,7.54
2023-12-20T09:32:55.281Z,7.57
2023-12-20T09:35:22.376Z,7.59
2023-12-20T09:37:49.142Z,7.57
2023-12-20T09:40:17.087Z,7.55
2023-12-20T09:42:59.759Z,7.61
2023-12-20T09:45:26.549Z,7.62
2023-12-20T09:47:57.230Z,7.70
2023-12-20T09:50:24.058Z,7.68
2023-12-20T09:52:52.767Z,7.70
2023-12-20T09:55:21.053Z,7.71
2023-12-20T09:57:49.261Z,7.71
2023-12-20T10:00:16.823Z,7.75
2023-12-20T10:02:51.309Z,7.74
2023-12-20T10:05:21.929Z,7.75
2023-12-20T10:07:48.992Z,7.81
2023-12-20T10:10:16.270Z,7.82
2023-12-20T10:13:02.715Z,7.82
2023-12-20T10:15:29.177Z,7.80
2023-12-20T10:17:59.609Z,7.77
2023-12-20T10:20:31.026Z,7.74
2023-12-20T10:22:58.508Z,7.77
2023-12-20T10:25:25.947Z,7.79
2023-12-20T10:28:10.521Z,7.79
2023-12-20T10:30:37.196Z,7.77
2023-12-20T10:33:04.081Z,7.81
2023-12-20T10:35:30.813Z,7.86
2023-12-20T10:37:59.771Z,7.88
2023-12-20T10:40:29.029Z,7.86
2023-12-20T10:42:57.230Z,7.85
2023-12-20T10:45:24.942Z,7.83
2023-12-20T10:47:51.977Z,7.80
2023-12-20T10:50:20.934Z,7.82
2023-12-20T10:52:48.965Z,7.82
2023-12-20T10:55:15.540Z,7.83
2023-12-20T10:57:43.606Z,7.89
2023-12-20T11:00:16.668Z,7.87
2023-12-20T11:02:44.349Z,7.85
2023-12-20T11:05:26.394Z,7.81
2023-12-20T11:08:00.803Z,7.79
2023-12-20T11:10:37.405Z,7.83
2023-12-20T11:13:13.940Z,7.85
2023-12-20T11:15:40.909Z,7.89
2023-12-20T11:18:07.670Z,7.91
2023-12-20T11:20:41.731Z,7.94
2023-12-20T11:23:10.181Z,7.93
2023-12-20T11:26:01.186Z,7.95
2023-12-20T11:28:28.108Z,7.89
2023-12-20T11:30:56.353Z,7.90
2023-12-20T11:33:37.505Z,7.93
2023-12-20T11:36:04.311Z,7.92
2023-12-20T11:38:50.187Z,7.90
2023-12-20T11:41:16.733Z,7.89
2023-12-20T11:43:43.095Z,7.92
2023-12-20T11:46:10.994Z,7.97
2023-12-20T11:48:40.406Z,7.98
2023-12-20T11:51:15.922Z,8.00
2023-12-20T11:53:45.167Z,7.98
2023-12-20T11:56:12.108Z,7.96
2023-12-20T11:58:40.081Z,8.00
2023-12-20T12:01:09.082Z,8.03
2023-12-20T12:03:36.127Z,8.00
2023-12-20T12:06:05.482Z,7.98
2023-12-20T12:08:32.305Z,7.98
2023-12-20T12:10:59.074Z,8.01
2023-12-20T12:13:28.374Z,8.03
2023-12-20T12:15:55.224Z,8.00
2023-12-20T12:18:22.036Z,8.02
2023-12-20T12:20:48.647Z,8.00
2023-12-20T12:23:15.256Z,8.00
2023-12-20T12:25:43.632Z,8.00
2023-12-20T12:28:11.326Z,8.03
2023-12-20T12:30:42.945Z,8.00
2023-12-20T12:33:13.571Z,8.00
2023-12-20T12:35:41.512Z,8.01
2023-12-20T12:38:09.153Z,8.02
2023-12-20T12:40:36.872Z,8.05
2023-12-20T12:43:03.346Z,8.04
2023-12-20T12:45:30.160Z,8.04
2023-12-20T12:47:56.745Z,8.08
2023-12-20T12:50:23.319Z,8.08
2023-12-20T12:52:49.853Z,8.09
2023-12-20T12:55:16.458Z,8.11
2023-12-20T12:57:43.037Z,8.10
2023-12-20T13:00:10.580Z,8.12
2023-12-20T13:02:38.951Z,8.13
2023-12-20T13:05:06.491Z,8.11
2023-12-20T13:07:33.805Z,8.11
2023-12-20T13:10:00.411Z,8.17
2023-12-20T13:12:27.191Z,8.16
2023-12-20T13:14:54.656Z,8.14
2023-12-20T13:17:21.220Z,8.21
2023-12-20T13:19:48.022Z,8.13
2023-12-20T13:22:14.515Z,8.16
2023-12-20T13:24:41.530Z,8.24
2023-12-20T13:27:07.997Z,8.33
2023-12-20T13:29:35.725Z,8.36
2023-12-20T13:32:04.745Z,8.40
2023-12-20T13:34:31.306Z,8.35
2023-12-20T13:36:57.883Z,8.30
2023-12-20T13:39:24.448Z,8.32
2023-12-20T13:41:50.869Z,8.28
2023-12-20T13:44:17.223Z,8.25
2023-12-20T13:46:43.691Z,8.24
2023-12-20T13:49:10.347Z,8.23
2023-12-20T13:51:36.823Z,8.25
2023-12-20T13:54:03.224Z,8.25
2023-12-20T13:56:29.729Z,8.28
2023-12-20T13:58:56.327Z,8.29
2023-12-20T14:01:24.287Z,8.26
2023-12-20T14:03:51.416Z,8.26
2023-12-20T14:06:18.935Z,8.29
2023-12-20T14:08:45.324Z,8.35
2023-12-20T14:11:12.363Z,8.32
2023-12-20T14:13:38.821Z,8.33
2023-12-20T14:16:05.500Z,8.27
2023-12-20T14:18:31.907Z,8.26
2023-12-20T14:20:58.520Z,8.26
2023-12-20T14:23:24.939Z,8.30
2023-12-20T14:25:52.683Z,8.31
2023-12-20T14:28:20.360Z,8.38
2023-12-20T14:30:46.999Z,8.38
2023-12-20T14:33:13.699Z,8.40
2023-12-20T14:35:40.132Z,8.43
2023-12-20T14:38:07.094Z,8.47
2023-12-20T14:40:33.623Z,8.44
2023-12-20T14:43:01.176Z,8.40
2023-12-20T14:45:28.598Z,8.45
2023-12-20T14:47:55.117Z,8.48
2023-12-20T14:50:21.644Z,8.53
2023-12-20T14:52:48.268Z,8.60
2023-12-20T14:55:14.903Z,8.60
2023-12-20T14:57:41.496Z,8.61
2023-12-20T15:00:08.707Z,8.58
2023-12-20T15:02:35.260Z,8.53
2023-12-20T15:05:02.396Z,8.53
2023-12-20T15:07:29.073Z,8.59
2023-12-20T15:09:55.839Z,8.56
2023-12-20T15:12:22.279Z,8.54
2023-12-20T15:14:48.690Z,8.53
2023-12-20T15:17:15.413Z,8.56
2023-12-20T15:19:43.580Z,8.56
2023-12-20T15:22:10.089Z,8.58
2023-12-20T15:24:39.992Z,8.58
2023-12-20T15:27:07.270Z,8.57
2023-12-20T15:29:34.109Z,8.59
2023-12-20T15:32:00.711Z,8.57
2023-12-20T15:34:27.197Z,8.59
2023-12-20T15:36:53.646Z,8.63
2023-12-20T15:39:20.072Z,8.60
2023-12-20T15:41:46.397Z,8.63
2023-12-20T15:44:13.906Z,8.60
2023-12-20T15:46:40.538Z,8.56
2023-12-20T15:49:07.111Z,8.60
2023-12-20T15:51:33.726Z,8.63
2023-12-20T15:54:04.368Z,8.62
2023-12-20T15:56:31.514Z,8.63
2023-12-20T15:58:58.749Z,8.60
2023-12-20T16:01:25.454Z,8.59
2023-12-20T16:03:58.677Z,8.59
2023-12-20T16:06:25.959Z,8.63
2023-12-20T16:08:52.417Z,8.64
2023-12-20T16:11:18.815Z,8.62
2023-12-20T16:13:45.911Z,8.66
2023-12-20T16:16:12.442Z,8.71
2023-12-20T16:18:39.055Z,8.64
2023-12-20T16:21:05.716Z,8.61
2023-12-20T16:23:32.299Z,8.61
2023-12-20T16:25:58.769Z,8.60
2023-12-20T16:28:25.471Z,8.59
2023-12-20T16:30:52.393Z,8.61
2023-12-20T16:33:19.051Z,8.63
2023-12-20T16:35:45.600Z,8.65
2023-12-20T16:38:11.956Z,8.62
2023-12-20T16:40:38.338Z,8.66
2023-12-20T16:43:05.007Z,8.67
2023-12-20T16:45:31.581Z,8.64
2023-12-20T16:47:58.203Z,8.64
2023-12-20T16:50:24.934Z,8.62
2023-12-20T16:52:52.632Z,8.64
2023-12-20T16:55:19.466Z,8.63
2023-12-20T16:57:46.105Z,8.64
2023-12-20T17:00:13.565Z,8.63
2023-12-20T17:02:40.719Z,8.64
2023-12-20T17:05:07.887Z,8.63
2023-12-20T17:07:34.572Z,8.60
2023-12-20T17:10:01.410Z,8.65
2023-12-20T17:12:27.863Z,8.67
2023-12-20T17:14:54.335Z,8.71
2023-12-20T17:17:20.844Z,8.73
2023-12-20T17:19:47.333Z,8.73
2023-12-20T17:22:13.968Z,8.74
2023-12-20T17:24:40.374Z,8.69
2023-12-20T17:27:06.842Z,8.70
2023-12-20T17:29:33.201Z,8.72
2023-12-20T17:31:59.600Z,8.70
2023-12-20T17:34:26.568Z,8.72
2023-12-20T17:36:53.040Z,8.76
2023-12-20T17:39:19.480Z,8.77
2023-12-20T17:41:45.813Z,8.78
2023-12-20T17:44:13.682Z,8.77
2023-12-20T17:46:40.579Z,8.79
2023-12-20T17:49:07.152Z,8.79
2023-12-20T17:51:33.780Z,8.80
2023-12-20T17:54:01.955Z,8.83
2023-12-20T17:56:30.466Z,8.84
2023-12-20T17:58:57.146Z,8.85
2023-12-20T18:01:23.656Z,8.87
2023-12-20T18:03:50.288Z,8.88
2023-12-20T18:06:17.065Z,8.90
2023-12-20T18:08:43.525Z,8.90
2023-12-20T18:11:10.816Z,8.91
2023-12-20T18:13:37.322Z,8.93
2023-12-20T18:16:10.123Z,8.95
2023-12-20T18:18:37.357Z,8.95
2023-12-20T18:21:04.545Z,9.03
2023-12-20T18:23:31.137Z,9.04
2023-12-20T18:25:57.506Z,9.04
2023-12-20T18:28:23.955Z,9.04
2023-12-20T18:30:50.798Z,9.08
2023-12-20T18:33:17.212Z,9.11
2023-12-20T18:35:44.793Z,9.10
2023-12-20T18:38:11.792Z,9.14
2023-12-20T18:40:38.473Z,9.16
2023-12-20T18:43:05.168Z,9.18
2023-12-20T18:45:31.690Z,9.19
2023-12-20T18:47:58.308Z,9.23
2023-12-20T18:50:24.822Z,9.24
2023-12-20T18:52:51.257Z,9.25
2023-12-20T18:55:17.797Z,9.24
2023-12-20T18:57:46.501Z,9.28
2023-12-20T19:00:14.064Z,9.30
2023-12-20T19:02:41.180Z,9.32
2023-12-20T19:05:07.709Z,9.31
2023-12-20T19:07:34.307Z,9.30
2023-12-20T19:10:00.977Z,9.30
2023-12-20T19:12:27.388Z,9.30
2023-12-20T19:14:53.734Z,9.37
2023-12-20T19:17:20.191Z,9.36
2023-12-20T19:19:46.566Z,9.38
2023-12-20T19:22:14.040Z,9.38
2023-12-20T19:24:40.576Z,9.41
2023-12-20T19:27:07.016Z,9.42
2023-12-20T19:29:33.413Z,9.39
2023-12-20T19:31:59.975Z,9.39
2023-12-20T19:34:26.516Z,9.38
2023-12-20T19:36:53.006Z,9.38
2023-12-20T19:39:19.986Z,9.38
2023-12-20T19:41:46.380Z,9.39
2023-12-20T19:44:15.393Z,9.42
2023-12-20T19:46:43.214Z,9.44
2023-12-20T19:49:10.140Z,9.42
2023-12-20T19:51:36.980Z,9.50
2023-12-20T19:54:03.661Z,9.56
2023-12-20T19:56:30.275Z,9.53
2023-12-20T19:58:56.863Z,9.46
2023-12-20T20:01:23.380Z,9.49
2023-12-20T20:03:49.913Z,9.46
2023-12-20T20:06:16.391Z,9.39
2023-12-20T20:08:42.833Z,9.32
2023-12-20T20:11:18.316Z,9.33
2023-12-20T20:13:56.751Z,9.32
2023-12-20T20:16:23.703Z,9.36
2023-12-20T20:18:50.148Z,9.36
2023-12-20T20:21:16.805Z,9.38
2023-12-20T20:23:43.354Z,9.39
2023-12-20T20:26:10.026Z,9.43
2023-12-20T20:28:36.466Z,9.38
2023-12-20T20:31:03.073Z,9.32
2023-12-20T20:33:29.632Z,9.27
2023-12-20T20:35:56.085Z,9.23
2023-12-20T20:38:22.680Z,9.22
2023-12-20T20:40:49.104Z,9.14
2023-12-20T20:43:16.120Z,9.17
2023-12-20T20:45:42.633Z,9.20
2023-12-20T20:48:21.227Z,9.20
2023-12-20T20:50:57.310Z,9.19
2023-12-20T20:53:23.976Z,9.18
2023-12-20T20:55:50.361Z,9.18
2023-12-20T20:58:16.854Z,9.23
2023-12-20T21:00:43.249Z,9.25
2023-12-20T21:03:09.680Z,9.26
2023-12-20T21:05:36.226Z,9.28
2023-12-20T21:08:02.594Z,9.24
2023-12-20T21:10:29.091Z,9.24
2023-12-20T21:12:55.650Z,9.27
2023-12-20T21:15:22.209Z,9.25
2023-12-20T21:17:48.914Z,9.23
2023-12-20T21:20:15.923Z,9.22
2023-12-20T21:22:42.465Z,9.25
2023-12-20T21:25:11.789Z,9.28
2023-12-20T21:27:41.297Z,9.27
2023-12-20T21:30:10.697Z,9.29
2023-12-20T21:32:38.377Z,9.32
2023-12-20T21:35:05.490Z,9.37
2023-12-20T21:37:31.979Z,9.38
2023-12-20T21:39:58.741Z,9.37
2023-12-20T21:42:25.280Z,9.37
2023-12-20T21:44:51.756Z,9.40
2023-12-20T21:47:18.209Z,9.35
2023-12-20T21:49:44.786Z,9.39
2023-12-20T21:52:11.257Z,9.41
2023-12-20T21:54:38.339Z,9.38
2023-12-20T21:57:04.967Z,9.38
2023-12-20T21:59:31.397Z,9.39
2023-12-20T22:01:58.115Z,9.43
2023-12-20T22:04:24.743Z,9.41
2023-12-20T22:06:51.314Z,9.39
2023-12-20T22:09:17.742Z,9.39
2023-12-20T22:11:44.723Z,9.41
2023-12-20T22:14:11.150Z,9.41
2023-12-20T22:16:38.676Z,9.42
2023-12-20T22:19:05.335Z,9.43
2023-12-20T22:21:32.318Z,9.42
2023-12-20T22:23:59.051Z,9.39
2023-12-20T22:26:25.583Z,9.38
2023-12-20T22:28:52.044Z,9.33
2023-12-20T22:31:18.485Z,9.31
2023-12-20T22:33:45.029Z,9.33
2023-12-20T22:36:12.124Z,9.22
2023-12-20T22:38:41.613Z,9.15
2023-12-20T22:41:11.272Z,9.19
2023-12-20T22:43:38.466Z,9.12
2023-12-20T22:46:05.389Z,9.12
2023-12-20T22:48:32.033Z,9.08
2023-12-20T22:50:58.732Z,9.08
2023-12-20T22:53:25.117Z,9.10
2023-12-20T22:55:51.740Z,9.09
2023-12-20T22:58:18.159Z,9.04
2023-12-20T23:00:44.661Z,9.03
2023-12-20T23:03:11.149Z,9.05
2023-12-20T23:05:37.592Z,9.05
2023-12-20T23:08:04.569Z,9.08
2023-12-20T23:10:33.287Z,9.12
2023-12-20T23:13:00.009Z,9.12
2023-12-20T23:15:27.347Z,9.12
2023-12-20T23:17:55.216Z,9.15
2023-12-20T23:20:21.878Z,9.14
2023-12-20T23:22:48.401Z,9.16
2023-12-20T23:25:15.821Z,9.16
2023-12-20T23:27:48.145Z,9.17
2023-12-20T23:30:14.887Z,9.17
2023-12-20T23:32:41.474Z,9.22
2023-12-20T23:35:13.757Z,9.22
2023-12-20T23:37:43.322Z,9.25
2023-12-20T23:40:10.460Z,9.26
2023-12-20T23:42:36.962Z,9.28
2023-12-20T23:45:03.871Z,9.29
2023-12-20T23:47:30.684Z,9.29
2023-12-20T23:49:57.235Z,9.31
2023-12-20T23:52:23.844Z,9.33
2023-12-20T23:54:50.273Z,9.40
2023-12-20T23:57:16.682Z,9.38
2023-12-20T23:59:43.215Z,9.39
